sensor_id;sensor_type;location;lat;lon;timestamp;temperature;humidity
23073;DHT22;67971;51.046;3.732;2023-05-10T00:00:47;14.40;99.90
23073;DHT22;67971;51.046;3.732;2023-05-10T00:03:12;14.30;99.90
23073;DHT22;67971;51.046;3.732;2023-05-10T00:05:38;14.40;99.90
23073;DHT22;67971;51.046;3.732;2023-05-10T00:08:04;14.40;99.90
23073;DHT22;67971;51.046;3.732;2023-05-10T00:10:30;14.50;99.90
23073;DHT22;67971;51.046;3.732;2023-05-10T00:12:56;14.60;99.90
23073;DHT22;67971;51.046;3.732;2023-05-10T00:15:21;14.60;99.90
23073;DHT22;67971;51.046;3.732;2023-05-10T00:17:47;14.70;99.90
23073;DHT22;67971;51.046;3.732;2023-05-10T00:20:13;14.70;99.90
23073;DHT22;67971;51.046;3.732;2023-05-10T00:22:38;14.70;99.90
23073;DHT22;67971;51.046;3.732;2023-05-10T00:25:05;14.60;99.90
23073;DHT22;67971;51.046;3.732;2023-05-10T00:27:31;14.50;99.90
23073;DHT22;67971;51.046;3.732;2023-05-10T00:29:57;14.60;99.90
23073;DHT22;67971;51.046;3.732;2023-05-10T00:32:22;14.60;99.90
23073;DHT22;67971;51.046;3.732;2023-05-10T00:34:48;14.50;99.90
23073;DHT22;67971;51.046;3.732;2023-05-10T00:37:14;14.50;99.90
23073;DHT22;67971;51.046;3.732;2023-05-10T00:39:39;14.50;99.90
23073;DHT22;67971;51.046;3.732;2023-05-10T00:42:05;14.50;99.90
23073;DHT22;67971;51.046;3.732;2023-05-10T00:44:30;14.60;99.90
23073;DHT22;67971;51.046;3.732;2023-05-10T00:46:57;14.60;99.90
23073;DHT22;67971;51.046;3.732;2023-05-10T00:49:23;14.40;99.90
23073;DHT22;67971;51.046;3.732;2023-05-10T00:51:49;14.40;99.90
23073;DHT22;67971;51.046;3.732;2023-05-10T00:54:15;14.40;99.90
23073;DHT22;67971;51.046;3.732;2023-05-10T00:56:41;14.40;99.90
23073;DHT22;67971;51.046;3.732;2023-05-10T00:59:11;14.40;99.90
23073;DHT22;67971;51.046;3.732;2023-05-10T01:01:37;14.50;99.90
23073;DHT22;67971;51.046;3.732;2023-05-10T01:04:04;14.40;99.90
23073;DHT22;67971;51.046;3.732;2023-05-10T01:06:30;14.40;99.90
23073;DHT22;67971;51.046;3.732;2023-05-10T01:08:56;14.50;99.90
23073;DHT22;67971;51.046;3.732;2023-05-10T01:11:22;14.60;99.90
23073;DHT22;67971;51.046;3.732;2023-05-10T01:13:52;14.50;99.90
23073;DHT22;67971;51.046;3.732;2023-05-10T01:16:18;14.50;99.90
23073;DHT22;67971;51.046;3.732;2023-05-10T01:18:44;14.40;99.90
23073;DHT22;67971;51.046;3.732;2023-05-10T01:21:23;14.40;99.90
23073;DHT22;67971;51.046;3.732;2023-05-10T01:32:55;14.40;99.90
23073;DHT22;67971;51.046;3.732;2023-05-10T01:35:26;14.30;99.90
23073;DHT22;67971;51.046;3.732;2023-05-10T01:38:38;14.30;99.90
23073;DHT22;67971;51.046;3.732;2023-05-10T01:41:04;14.40;99.90
23073;DHT22;67971;51.046;3.732;2023-05-10T01:43:40;14.40;99.90
23073;DHT22;67971;51.046;3.732;2023-05-10T01:46:10;14.30;99.90
23073;DHT22;67971;51.046;3.732;2023-05-10T01:48:52;14.30;99.90
23073;DHT22;67971;51.046;3.732;2023-05-10T01:51:23;14.30;99.90
23073;DHT22;67971;51.046;3.732;2023-05-10T01:53:49;14.10;99.90
23073;DHT22;67971;51.046;3.732;2023-05-10T01:56:19;14.10;99.90
23073;DHT22;67971;51.046;3.732;2023-05-10T01:58:49;14.10;99.90
23073;DHT22;67971;51.046;3.732;2023-05-10T02:01:17;14.10;99.90
23073;DHT22;67971;51.046;3.732;2023-05-10T02:03:45;14.10;99.90
23073;DHT22;67971;51.046;3.732;2023-05-10T02:06:12;14.00;99.90
23073;DHT22;67971;51.046;3.732;2023-05-10T02:08:40;14.00;99.90
23073;DHT22;67971;51.046;3.732;2023-05-10T02:11:07;14.00;99.90
23073;DHT22;67971;51.046;3.732;2023-05-10T02:13:34;14.00;99.90
23073;DHT22;67971;51.046;3.732;2023-05-10T02:16:01;14.00;99.90
23073;DHT22;67971;51.046;3.732;2023-05-10T02:18:28;14.00;99.90
23073;DHT22;67971;51.046;3.732;2023-05-10T02:20:55;14.00;99.90
23073;DHT22;67971;51.046;3.732;2023-05-10T02:23:22;14.10;99.90
23073;DHT22;67971;51.046;3.732;2023-05-10T02:25:49;14.10;99.90
23073;DHT22;67971;51.046;3.732;2023-05-10T02:28:17;14.20;99.90
23073;DHT22;67971;51.046;3.732;2023-05-10T02:30:43;14.00;99.90
23073;DHT22;67971;51.046;3.732;2023-05-10T02:33:10;14.00;99.90
23073;DHT22;67971;51.046;3.732;2023-05-10T02:35:36;14.00;99.90
23073;DHT22;67971;51.046;3.732;2023-05-10T02:38:04;14.00;99.90
23073;DHT22;67971;51.046;3.732;2023-05-10T02:40:32;14.10;99.90
23073;DHT22;67971;51.046;3.732;2023-05-10T02:42:59;14.00;99.90
23073;DHT22;67971;51.046;3.732;2023-05-10T02:45:30;14.10;99.90
23073;DHT22;67971;51.046;3.732;2023-05-10T02:47:56;14.10;99.90
23073;DHT22;67971;51.046;3.732;2023-05-10T02:50:27;14.10;99.90
23073;DHT22;67971;51.046;3.732;2023-05-10T02:52:59;14.10;99.90
23073;DHT22;67971;51.046;3.732;2023-05-10T02:55:28;14.10;99.90
23073;DHT22;67971;51.046;3.732;2023-05-10T02:58:00;14.20;99.90
23073;DHT22;67971;51.046;3.732;2023-05-10T03:00:26;14.20;99.90
23073;DHT22;67971;51.046;3.732;2023-05-10T03:02:52;14.20;99.90
23073;DHT22;67971;51.046;3.732;2023-05-10T03:05:18;14.30;99.90
23073;DHT22;67971;51.046;3.732;2023-05-10T03:07:45;14.30;99.90
23073;DHT22;67971;51.046;3.732;2023-05-10T03:10:11;14.20;99.90
23073;DHT22;67971;51.046;3.732;2023-05-10T03:18:15;14.40;99.90
23073;DHT22;67971;51.046;3.732;2023-05-10T03:20:48;14.10;99.90
23073;DHT22;67971;51.046;3.732;2023-05-10T03:23:22;13.90;99.90
23073;DHT22;67971;51.046;3.732;2023-05-10T03:25:49;13.90;99.90
23073;DHT22;67971;51.046;3.732;2023-05-10T03:28:18;13.90;99.90
23073;DHT22;67971;51.046;3.732;2023-05-10T03:30:44;14.00;99.90
23073;DHT22;67971;51.046;3.732;2023-05-10T03:33:10;13.90;99.90
23073;DHT22;67971;51.046;3.732;2023-05-10T03:35:36;14.10;99.90
23073;DHT22;67971;51.046;3.732;2023-05-10T03:38:02;14.10;99.90
23073;DHT22;67971;51.046;3.732;2023-05-10T03:40:28;14.10;99.90
23073;DHT22;67971;51.046;3.732;2023-05-10T03:42:57;14.00;99.90
23073;DHT22;67971;51.046;3.732;2023-05-10T03:45:22;14.10;99.90
23073;DHT22;67971;51.046;3.732;2023-05-10T03:47:48;14.20;99.90
23073;DHT22;67971;51.046;3.732;2023-05-10T03:50:14;14.20;99.90
23073;DHT22;67971;51.046;3.732;2023-05-10T03:52:39;14.20;99.90
23073;DHT22;67971;51.046;3.732;2023-05-10T03:55:06;14.20;99.90
23073;DHT22;67971;51.046;3.732;2023-05-10T03:57:32;14.30;99.90
23073;DHT22;67971;51.046;3.732;2023-05-10T03:59:57;14.30;99.90
23073;DHT22;67971;51.046;3.732;2023-05-10T04:02:23;14.30;99.90
23073;DHT22;67971;51.046;3.732;2023-05-10T04:04:49;14.20;99.90
23073;DHT22;67971;51.046;3.732;2023-05-10T04:07:15;14.20;99.90
23073;DHT22;67971;51.046;3.732;2023-05-10T04:09:40;14.20;99.90
23073;DHT22;67971;51.046;3.732;2023-05-10T04:12:06;14.20;99.90
23073;DHT22;67971;51.046;3.732;2023-05-10T04:14:32;14.40;99.90
23073;DHT22;67971;51.046;3.732;2023-05-10T04:16:57;14.40;99.90
23073;DHT22;67971;51.046;3.732;2023-05-10T04:19:23;14.50;99.90
23073;DHT22;67971;51.046;3.732;2023-05-10T04:21:49;14.60;99.90
23073;DHT22;67971;51.046;3.732;2023-05-10T04:24:14;14.70;99.90
23073;DHT22;67971;51.046;3.732;2023-05-10T04:26:40;14.80;99.90
23073;DHT22;67971;51.046;3.732;2023-05-10T04:29:06;14.80;99.90
23073;DHT22;67971;51.046;3.732;2023-05-10T04:31:32;14.70;99.90
23073;DHT22;67971;51.046;3.732;2023-05-10T04:33:57;14.60;99.90
23073;DHT22;67971;51.046;3.732;2023-05-10T04:36:23;14.60;99.90
23073;DHT22;67971;51.046;3.732;2023-05-10T04:38:49;14.60;99.90
23073;DHT22;67971;51.046;3.732;2023-05-10T04:41:14;14.60;99.90
23073;DHT22;67971;51.046;3.732;2023-05-10T04:43:40;14.70;99.90
23073;DHT22;67971;51.046;3.732;2023-05-10T04:46:06;14.70;99.90
23073;DHT22;67971;51.046;3.732;2023-05-10T04:48:32;14.70;99.90
23073;DHT22;67971;51.046;3.732;2023-05-10T04:50:58;14.80;99.90
23073;DHT22;67971;51.046;3.732;2023-05-10T04:53:25;14.80;99.90
23073;DHT22;67971;51.046;3.732;2023-05-10T04:55:50;14.80;99.90
23073;DHT22;67971;51.046;3.732;2023-05-10T04:58:16;14.90;99.90
23073;DHT22;67971;51.046;3.732;2023-05-10T05:00:42;14.80;99.90
23073;DHT22;67971;51.046;3.732;2023-05-10T05:03:08;14.80;99.90
23073;DHT22;67971;51.046;3.732;2023-05-10T05:05:33;14.70;99.90
23073;DHT22;67971;51.046;3.732;2023-05-10T05:08:00;14.70;99.90
23073;DHT22;67971;51.046;3.732;2023-05-10T05:10:26;14.60;99.90
23073;DHT22;67971;51.046;3.732;2023-05-10T05:12:51;14.60;99.90
23073;DHT22;67971;51.046;3.732;2023-05-10T05:15:17;14.60;99.90
23073;DHT22;67971;51.046;3.732;2023-05-10T05:17:43;14.60;99.90
23073;DHT22;67971;51.046;3.732;2023-05-10T05:20:09;14.70;99.90
23073;DHT22;67971;51.046;3.732;2023-05-10T05:22:38;14.70;99.90
23073;DHT22;67971;51.046;3.732;2023-05-10T05:25:04;14.90;99.90
23073;DHT22;67971;51.046;3.732;2023-05-10T05:27:31;14.80;99.90
23073;DHT22;67971;51.046;3.732;2023-05-10T05:29:57;14.90;99.90
23073;DHT22;67971;51.046;3.732;2023-05-10T05:32:23;15.00;99.90
23073;DHT22;67971;51.046;3.732;2023-05-10T05:34:49;15.00;99.90
23073;DHT22;67971;51.046;3.732;2023-05-10T05:37:17;15.00;99.90
23073;DHT22;67971;51.046;3.732;2023-05-10T05:39:43;15.20;99.90
23073;DHT22;67971;51.046;3.732;2023-05-10T05:42:09;15.20;99.90
23073;DHT22;67971;51.046;3.732;2023-05-10T05:44:35;15.20;99.90
23073;DHT22;67971;51.046;3.732;2023-05-10T05:47:01;15.20;99.90
23073;DHT22;67971;51.046;3.732;2023-05-10T05:49:27;15.10;99.90
23073;DHT22;67971;51.046;3.732;2023-05-10T05:51:52;15.10;99.90
23073;DHT22;67971;51.046;3.732;2023-05-10T05:54:18;15.20;99.90
23073;DHT22;67971;51.046;3.732;2023-05-10T05:56:44;15.30;99.90
23073;DHT22;67971;51.046;3.732;2023-05-10T05:59:10;15.40;99.90
23073;DHT22;67971;51.046;3.732;2023-05-10T06:01:36;15.50;99.90
23073;DHT22;67971;51.046;3.732;2023-05-10T06:04:02;15.40;99.90
23073;DHT22;67971;51.046;3.732;2023-05-10T06:06:28;15.60;99.90
23073;DHT22;67971;51.046;3.732;2023-05-10T06:08:54;15.80;99.90
23073;DHT22;67971;51.046;3.732;2023-05-10T06:11:19;16.00;99.90
23073;DHT22;67971;51.046;3.732;2023-05-10T06:13:46;16.10;99.90
23073;DHT22;67971;51.046;3.732;2023-05-10T06:16:12;16.20;99.90
23073;DHT22;67971;51.046;3.732;2023-05-10T06:18:39;16.30;99.90
23073;DHT22;67971;51.046;3.732;2023-05-10T06:21:04;16.50;99.90
23073;DHT22;67971;51.046;3.732;2023-05-10T06:23:30;16.50;99.90
23073;DHT22;67971;51.046;3.732;2023-05-10T06:25:56;16.30;99.90
23073;DHT22;67971;51.046;3.732;2023-05-10T06:28:22;16.10;99.90
23073;DHT22;67971;51.046;3.732;2023-05-10T06:30:47;16.00;99.90
23073;DHT22;67971;51.046;3.732;2023-05-10T06:33:13;15.80;99.90
23073;DHT22;67971;51.046;3.732;2023-05-10T06:35:39;15.80;99.90
23073;DHT22;67971;51.046;3.732;2023-05-10T06:38:05;15.90;99.90
23073;DHT22;67971;51.046;3.732;2023-05-10T06:40:30;16.10;99.90
23073;DHT22;67971;51.046;3.732;2023-05-10T06:42:56;16.10;99.90
23073;DHT22;67971;51.046;3.732;2023-05-10T06:45:22;16.20;99.90
23073;DHT22;67971;51.046;3.732;2023-05-10T06:47:47;16.30;99.90
23073;DHT22;67971;51.046;3.732;2023-05-10T06:50:13;16.30;99.90
23073;DHT22;67971;51.046;3.732;2023-05-10T06:52:40;16.40;99.90
23073;DHT22;67971;51.046;3.732;2023-05-10T06:55:06;16.40;99.90
23073;DHT22;67971;51.046;3.732;2023-05-10T06:57:32;16.50;99.90
23073;DHT22;67971;51.046;3.732;2023-05-10T06:59:58;16.80;99.90
23073;DHT22;67971;51.046;3.732;2023-05-10T07:02:24;17.10;99.90
23073;DHT22;67971;51.046;3.732;2023-05-10T07:04:51;17.30;99.90
23073;DHT22;67971;51.046;3.732;2023-05-10T07:07:17;17.30;99.90
23073;DHT22;67971;51.046;3.732;2023-05-10T07:09:44;17.50;99.90
23073;DHT22;67971;51.046;3.732;2023-05-10T07:12:10;17.70;99.90
23073;DHT22;67971;51.046;3.732;2023-05-10T07:14:36;17.70;99.90
23073;DHT22;67971;51.046;3.732;2023-05-10T07:17:01;17.50;99.90
23073;DHT22;67971;51.046;3.732;2023-05-10T07:19:27;17.20;99.90
23073;DHT22;67971;51.046;3.732;2023-05-10T07:21:54;17.00;99.90
23073;DHT22;67971;51.046;3.732;2023-05-10T07:24:20;16.80;99.90
23073;DHT22;67971;51.046;3.732;2023-05-10T07:26:46;16.60;99.90
23073;DHT22;67971;51.046;3.732;2023-05-10T07:29:12;16.50;99.90
23073;DHT22;67971;51.046;3.732;2023-05-10T07:31:39;16.40;99.90
23073;DHT22;67971;51.046;3.732;2023-05-10T07:34:07;16.30;99.90
23073;DHT22;67971;51.046;3.732;2023-05-10T07:36:33;16.20;99.90
23073;DHT22;67971;51.046;3.732;2023-05-10T07:38:58;16.20;99.90
23073;DHT22;67971;51.046;3.732;2023-05-10T07:41:25;16.20;99.90
23073;DHT22;67971;51.046;3.732;2023-05-10T07:43:51;16.20;99.90
23073;DHT22;67971;51.046;3.732;2023-05-10T07:46:17;16.10;99.90
23073;DHT22;67971;51.046;3.732;2023-05-10T07:48:44;16.10;99.90
23073;DHT22;67971;51.046;3.732;2023-05-10T07:51:10;16.00;99.90
23073;DHT22;67971;51.046;3.732;2023-05-10T07:53:36;15.90;99.90
23073;DHT22;67971;51.046;3.732;2023-05-10T07:56:25;15.80;99.90
23073;DHT22;67971;51.046;3.732;2023-05-10T07:59:01;15.80;99.90
23073;DHT22;67971;51.046;3.732;2023-05-10T08:01:30;15.90;99.90
23073;DHT22;67971;51.046;3.732;2023-05-10T08:03:59;15.90;99.90
23073;DHT22;67971;51.046;3.732;2023-05-10T08:06:25;16.10;99.90
23073;DHT22;67971;51.046;3.732;2023-05-10T08:08:56;15.90;99.90
23073;DHT22;67971;51.046;3.732;2023-05-10T08:11:22;15.80;99.90
23073;DHT22;67971;51.046;3.732;2023-05-10T08:13:49;16.00;99.90
23073;DHT22;67971;51.046;3.732;2023-05-10T08:16:15;16.30;99.90
23073;DHT22;67971;51.046;3.732;2023-05-10T08:18:43;16.50;99.90
23073;DHT22;67971;51.046;3.732;2023-05-10T08:21:08;16.70;99.90
23073;DHT22;67971;51.046;3.732;2023-05-10T08:23:36;16.70;99.90
23073;DHT22;67971;51.046;3.732;2023-05-10T08:26:02;16.90;99.90
23073;DHT22;67971;51.046;3.732;2023-05-10T08:28:28;17.00;99.90
23073;DHT22;67971;51.046;3.732;2023-05-10T08:30:54;17.20;99.90
23073;DHT22;67971;51.046;3.732;2023-05-10T08:33:19;17.30;99.90
23073;DHT22;67971;51.046;3.732;2023-05-10T08:35:45;17.20;99.90
23073;DHT22;67971;51.046;3.732;2023-05-10T08:38:11;17.00;99.90
23073;DHT22;67971;51.046;3.732;2023-05-10T08:40:39;16.90;99.90
23073;DHT22;67971;51.046;3.732;2023-05-10T08:43:08;16.60;99.90
23073;DHT22;67971;51.046;3.732;2023-05-10T08:45:39;16.30;99.90
23073;DHT22;67971;51.046;3.732;2023-05-10T08:48:06;16.00;99.90
23073;DHT22;67971;51.046;3.732;2023-05-10T08:50:36;15.80;99.90
23073;DHT22;67971;51.046;3.732;2023-05-10T08:53:13;15.80;99.90
23073;DHT22;67971;51.046;3.732;2023-05-10T08:55:41;15.90;99.90
23073;DHT22;67971;51.046;3.732;2023-05-10T08:58:08;16.10;99.90
23073;DHT22;67971;51.046;3.732;2023-05-10T09:00:34;16.10;99.90
23073;DHT22;67971;51.046;3.732;2023-05-10T09:03:03;16.00;99.90
23073;DHT22;67971;51.046;3.732;2023-05-10T09:05:29;16.20;99.90
23073;DHT22;67971;51.046;3.732;2023-05-10T09:07:55;16.20;99.90
23073;DHT22;67971;51.046;3.732;2023-05-10T09:10:21;16.10;99.90
23073;DHT22;67971;51.046;3.732;2023-05-10T09:12:48;16.00;99.90
23073;DHT22;67971;51.046;3.732;2023-05-10T09:15:17;15.80;99.90
23073;DHT22;67971;51.046;3.732;2023-05-10T09:17:45;15.40;99.90
23073;DHT22;67971;51.046;3.732;2023-05-10T09:20:11;15.20;99.90
23073;DHT22;67971;51.046;3.732;2023-05-10T09:22:37;15.10;99.90
23073;DHT22;67971;51.046;3.732;2023-05-10T09:25:16;15.10;99.90
23073;DHT22;67971;51.046;3.732;2023-05-10T09:27:47;15.00;99.90
23073;DHT22;67971;51.046;3.732;2023-05-10T09:30:31;15.10;99.90
23073;DHT22;67971;51.046;3.732;2023-05-10T09:32:58;15.30;99.90
23073;DHT22;67971;51.046;3.732;2023-05-10T09:35:25;15.60;99.90
23073;DHT22;67971;51.046;3.732;2023-05-10T09:37:53;16.00;99.90
23073;DHT22;67971;51.046;3.732;2023-05-10T09:40:22;16.50;99.90
23073;DHT22;67971;51.046;3.732;2023-05-10T09:42:53;17.30;99.90
23073;DHT22;67971;51.046;3.732;2023-05-10T09:45:21;18.40;99.90
23073;DHT22;67971;51.046;3.732;2023-05-10T09:47:46;20.00;99.90
23073;DHT22;67971;51.046;3.732;2023-05-10T09:50:12;20.80;99.90
23073;DHT22;67971;51.046;3.732;2023-05-10T09:52:58;21.20;99.90
23073;DHT22;67971;51.046;3.732;2023-05-10T09:55:45;21.90;99.90
23073;DHT22;67971;51.046;3.732;2023-05-10T09:58:12;21.90;99.90
23073;DHT22;67971;51.046;3.732;2023-05-10T10:00:45;22.00;99.90
23073;DHT22;67971;51.046;3.732;2023-05-10T10:03:20;21.60;99.90
23073;DHT22;67971;51.046;3.732;2023-05-10T10:05:47;21.60;99.90
23073;DHT22;67971;51.046;3.732;2023-05-10T10:08:14;21.70;99.90
23073;DHT22;67971;51.046;3.732;2023-05-10T10:10:59;21.50;99.90
23073;DHT22;67971;51.046;3.732;2023-05-10T10:13:25;21.60;99.90
23073;DHT22;67971;51.046;3.732;2023-05-10T10:15:52;22.40;99.90
23073;DHT22;67971;51.046;3.732;2023-05-10T10:18:18;22.70;99.90
23073;DHT22;67971;51.046;3.732;2023-05-10T10:20:48;22.40;99.90
23073;DHT22;67971;51.046;3.732;2023-05-10T10:23:15;22.70;99.90
23073;DHT22;67971;51.046;3.732;2023-05-10T10:25:41;23.10;99.90
23073;DHT22;67971;51.046;3.732;2023-05-10T10:28:19;23.20;99.90
23073;DHT22;67971;51.046;3.732;2023-05-10T10:30:48;23.10;99.90
23073;DHT22;67971;51.046;3.732;2023-05-10T10:36:03;22.50;99.90
23073;DHT22;67971;51.046;3.732;2023-05-10T10:38:56;21.90;99.90
23073;DHT22;67971;51.046;3.732;2023-05-10T10:41:40;22.00;99.90
23073;DHT22;67971;51.046;3.732;2023-05-10T10:52:22;20.20;99.90
23073;DHT22;67971;51.046;3.732;2023-05-10T10:57:46;19.40;99.90
23073;DHT22;67971;51.046;3.732;2023-05-10T11:00:23;19.30;99.90
23073;DHT22;67971;51.046;3.732;2023-05-10T11:03:05;19.20;99.90
23073;DHT22;67971;51.046;3.732;2023-05-10T11:10:39;18.10;99.90
23073;DHT22;67971;51.046;3.732;2023-05-10T11:13:28;17.80;99.90
23073;DHT22;67971;51.046;3.732;2023-05-10T11:15:56;17.70;99.90
23073;DHT22;67971;51.046;3.732;2023-05-10T11:18:26;17.70;99.90
23073;DHT22;67971;51.046;3.732;2023-05-10T11:21:01;17.80;99.90
23073;DHT22;67971;51.046;3.732;2023-05-10T11:26:07;17.70;99.90
23073;DHT22;67971;51.046;3.732;2023-05-10T11:28:45;17.50;99.90
23073;DHT22;67971;51.046;3.732;2023-05-10T11:31:13;17.30;99.90
23073;DHT22;67971;51.046;3.732;2023-05-10T11:33:48;17.20;99.90
23073;DHT22;67971;51.046;3.732;2023-05-10T11:36:15;17.20;99.90
23073;DHT22;67971;51.046;3.732;2023-05-10T11:38:41;17.10;99.90
23073;DHT22;67971;51.046;3.732;2023-05-10T11:41:11;16.90;99.90
23073;DHT22;67971;51.046;3.732;2023-05-10T11:43:39;17.00;99.90
23073;DHT22;67971;51.046;3.732;2023-05-10T11:46:09;17.10;99.90
23073;DHT22;67971;51.046;3.732;2023-05-10T11:48:36;17.00;99.90
23073;DHT22;67971;51.046;3.732;2023-05-10T11:51:03;17.00;99.90
23073;DHT22;67971;51.046;3.732;2023-05-10T11:53:31;17.20;99.90
23073;DHT22;67971;51.046;3.732;2023-05-10T11:56:08;17.50;99.90
23073;DHT22;67971;51.046;3.732;2023-05-10T11:58:34;17.90;99.90
23073;DHT22;67971;51.046;3.732;2023-05-10T12:01:01;18.40;99.90
23073;DHT22;67971;51.046;3.732;2023-05-10T12:03:28;18.90;99.90
23073;DHT22;67971;51.046;3.732;2023-05-10T12:05:55;19.50;99.90
23073;DHT22;67971;51.046;3.732;2023-05-10T12:08:23;19.90;99.90
23073;DHT22;67971;51.046;3.732;2023-05-10T12:10:50;20.20;99.90
23073;DHT22;67971;51.046;3.732;2023-05-10T12:13:16;20.00;99.90
23073;DHT22;67971;51.046;3.732;2023-05-10T12:15:43;19.50;99.90
23073;DHT22;67971;51.046;3.732;2023-05-10T12:18:10;19.40;99.90
23073;DHT22;67971;51.046;3.732;2023-05-10T12:20:36;19.40;99.90
23073;DHT22;67971;51.046;3.732;2023-05-10T12:23:02;19.00;99.90
23073;DHT22;67971;51.046;3.732;2023-05-10T12:25:35;19.10;99.90
23073;DHT22;67971;51.046;3.732;2023-05-10T12:28:06;19.10;99.90
23073;DHT22;67971;51.046;3.732;2023-05-10T12:30:34;19.30;99.90
23073;DHT22;67971;51.046;3.732;2023-05-10T12:33:09;19.50;99.90
23073;DHT22;67971;51.046;3.732;2023-05-10T12:35:54;19.40;99.90
23073;DHT22;67971;51.046;3.732;2023-05-10T12:38:28;19.10;99.90
23073;DHT22;67971;51.046;3.732;2023-05-10T12:41:12;18.90;99.90
23073;DHT22;67971;51.046;3.732;2023-05-10T12:43:39;18.70;99.90
23073;DHT22;67971;51.046;3.732;2023-05-10T12:46:09;18.60;99.90
23073;DHT22;67971;51.046;3.732;2023-05-10T12:48:37;18.60;99.90
23073;DHT22;67971;51.046;3.732;2023-05-10T12:51:09;18.50;99.90
23073;DHT22;67971;51.046;3.732;2023-05-10T12:53:38;18.30;99.90
23073;DHT22;67971;51.046;3.732;2023-05-10T12:56:04;18.00;99.90
23073;DHT22;67971;51.046;3.732;2023-05-10T12:58:30;17.90;99.90
23073;DHT22;67971;51.046;3.732;2023-05-10T13:00:57;17.80;99.90
23073;DHT22;67971;51.046;3.732;2023-05-10T13:03:22;17.70;99.90
23073;DHT22;67971;51.046;3.732;2023-05-10T13:05:48;17.60;99.90
23073;DHT22;67971;51.046;3.732;2023-05-10T13:08:14;17.60;99.90
23073;DHT22;67971;51.046;3.732;2023-05-10T13:10:40;17.60;99.90
23073;DHT22;67971;51.046;3.732;2023-05-10T13:13:06;17.70;99.90
23073;DHT22;67971;51.046;3.732;2023-05-10T13:15:33;17.60;99.90
23073;DHT22;67971;51.046;3.732;2023-05-10T13:17:58;17.50;99.90
23073;DHT22;67971;51.046;3.732;2023-05-10T13:20:25;17.50;99.90
23073;DHT22;67971;51.046;3.732;2023-05-10T13:22:50;17.50;99.90
23073;DHT22;67971;51.046;3.732;2023-05-10T13:25:16;17.60;99.90
23073;DHT22;67971;51.046;3.732;2023-05-10T13:27:42;17.50;99.90
23073;DHT22;67971;51.046;3.732;2023-05-10T13:30:08;17.40;99.90
23073;DHT22;67971;51.046;3.732;2023-05-10T13:32:35;17.30;99.90
23073;DHT22;67971;51.046;3.732;2023-05-10T13:35:01;17.20;99.90
23073;DHT22;67971;51.046;3.732;2023-05-10T13:37:29;17.20;99.90
23073;DHT22;67971;51.046;3.732;2023-05-10T13:39:55;17.10;99.90
23073;DHT22;67971;51.046;3.732;2023-05-10T13:42:22;17.30;99.90
23073;DHT22;67971;51.046;3.732;2023-05-10T13:44:48;17.50;99.90
23073;DHT22;67971;51.046;3.732;2023-05-10T13:47:14;17.60;99.90
23073;DHT22;67971;51.046;3.732;2023-05-10T13:49:40;17.60;99.90
23073;DHT22;67971;51.046;3.732;2023-05-10T13:52:05;17.60;99.90
23073;DHT22;67971;51.046;3.732;2023-05-10T13:54:36;17.40;99.90
23073;DHT22;67971;51.046;3.732;2023-05-10T13:57:02;17.30;99.90
23073;DHT22;67971;51.046;3.732;2023-05-10T13:59:29;17.20;99.90
23073;DHT22;67971;51.046;3.732;2023-05-10T14:01:54;17.10;99.90
23073;DHT22;67971;51.046;3.732;2023-05-10T14:04:20;17.00;99.90
23073;DHT22;67971;51.046;3.732;2023-05-10T14:06:46;16.60;99.90
23073;DHT22;67971;51.046;3.732;2023-05-10T14:09:11;16.60;99.90
23073;DHT22;67971;51.046;3.732;2023-05-10T14:11:38;16.70;99.90
23073;DHT22;67971;51.046;3.732;2023-05-10T14:14:07;16.60;99.90
23073;DHT22;67971;51.046;3.732;2023-05-10T14:16:35;16.70;99.90
23073;DHT22;67971;51.046;3.732;2023-05-10T14:19:02;16.70;99.90
23073;DHT22;67971;51.046;3.732;2023-05-10T14:21:28;16.90;99.90
23073;DHT22;67971;51.046;3.732;2023-05-10T14:23:55;16.90;99.90
23073;DHT22;67971;51.046;3.732;2023-05-10T14:26:21;16.90;99.90
23073;DHT22;67971;51.046;3.732;2023-05-10T14:28:47;17.10;99.90
23073;DHT22;67971;51.046;3.732;2023-05-10T14:31:12;17.30;99.90
23073;DHT22;67971;51.046;3.732;2023-05-10T14:33:39;17.50;99.90
23073;DHT22;67971;51.046;3.732;2023-05-10T14:36:06;17.60;99.90
23073;DHT22;67971;51.046;3.732;2023-05-10T14:38:32;17.80;99.90
23073;DHT22;67971;51.046;3.732;2023-05-10T14:40:58;18.00;99.90
23073;DHT22;67971;51.046;3.732;2023-05-10T14:43:23;18.00;99.90
23073;DHT22;67971;51.046;3.732;2023-05-10T14:45:49;18.20;99.90
23073;DHT22;67971;51.046;3.732;2023-05-10T14:48:15;18.30;99.90
23073;DHT22;67971;51.046;3.732;2023-05-10T14:50:44;18.30;99.90
23073;DHT22;67971;51.046;3.732;2023-05-10T14:53:10;18.30;99.90
23073;DHT22;67971;51.046;3.732;2023-05-10T14:55:36;18.30;99.90
23073;DHT22;67971;51.046;3.732;2023-05-10T14:58:03;18.10;99.90
23073;DHT22;67971;51.046;3.732;2023-05-10T15:00:29;18.20;99.90
23073;DHT22;67971;51.046;3.732;2023-05-10T15:02:55;18.30;99.90
23073;DHT22;67971;51.046;3.732;2023-05-10T15:05:22;18.40;99.90
23073;DHT22;67971;51.046;3.732;2023-05-10T15:07:48;18.40;99.90
23073;DHT22;67971;51.046;3.732;2023-05-10T15:10:15;18.50;99.90
23073;DHT22;67971;51.046;3.732;2023-05-10T15:12:40;18.50;99.90
23073;DHT22;67971;51.046;3.732;2023-05-10T15:15:07;18.40;99.90
23073;DHT22;67971;51.046;3.732;2023-05-10T15:17:33;18.50;99.90
23073;DHT22;67971;51.046;3.732;2023-05-10T15:19:59;18.60;99.90
23073;DHT22;67971;51.046;3.732;2023-05-10T15:22:25;18.80;99.90
23073;DHT22;67971;51.046;3.732;2023-05-10T15:24:51;19.00;99.90
23073;DHT22;67971;51.046;3.732;2023-05-10T15:27:16;19.10;99.90
23073;DHT22;67971;51.046;3.732;2023-05-10T15:29:42;19.10;99.90
23073;DHT22;67971;51.046;3.732;2023-05-10T15:32:08;19.00;99.90
23073;DHT22;67971;51.046;3.732;2023-05-10T15:34:33;19.10;99.90
23073;DHT22;67971;51.046;3.732;2023-05-10T15:36:59;18.90;99.90
23073;DHT22;67971;51.046;3.732;2023-05-10T15:39:25;18.80;99.90
23073;DHT22;67971;51.046;3.732;2023-05-10T15:41:51;18.80;99.90
23073;DHT22;67971;51.046;3.732;2023-05-10T15:44:16;18.80;99.90
23073;DHT22;67971;51.046;3.732;2023-05-10T15:46:43;18.70;99.90
23073;DHT22;67971;51.046;3.732;2023-05-10T15:49:09;18.60;99.90
23073;DHT22;67971;51.046;3.732;2023-05-10T15:51:35;18.70;99.90
23073;DHT22;67971;51.046;3.732;2023-05-10T15:54:01;18.90;99.90
23073;DHT22;67971;51.046;3.732;2023-05-10T15:56:28;18.90;99.90
23073;DHT22;67971;51.046;3.732;2023-05-10T15:58:53;18.90;99.90
23073;DHT22;67971;51.046;3.732;2023-05-10T16:01:19;19.00;99.90
23073;DHT22;67971;51.046;3.732;2023-05-10T16:03:45;19.10;99.90
23073;DHT22;67971;51.046;3.732;2023-05-10T16:06:11;19.30;99.90
23073;DHT22;67971;51.046;3.732;2023-05-10T16:08:36;19.30;99.90